createdAt,value
2023-04-20T00:00:49.714Z,4.87
2023-04-20T00:03:21.745Z,4.80
2023-04-20T00:05:50.329Z,4.75
2023-04-20T00:08:18.480Z,4.70
2023-04-20T00:10:46.766Z,4.69
2023-04-20T00:13:14.614Z,4.63
2023-04-20T00:15:42.456Z,4.62
2023-04-20T00:18:10.200Z,4.53
2023-04-20T00:20:39.617Z,4.63
2023-04-20T00:23:08.448Z,4.58
2023-04-20T00:25:36.333Z,4.63
2023-04-20T00:28:04.213Z,4.58
2023-04-20T00:30:32.146Z,4.57
2023-04-20T00:33:00.046Z,4.61
2023-04-20T00:35:27.956Z,4.68
2023-04-20T00:37:59.643Z,4.79
2023-04-20T00:40:27.433Z,4.58
2023-04-20T00:42:55.290Z,4.51
2023-04-20T00:45:24.738Z,4.64
2023-04-20T00:47:52.796Z,4.61
2023-04-20T00:50:22.127Z,4.65
2023-04-20T00:52:49.973Z,4.71
2023-04-20T00:55:21.644Z,4.77
2023-04-20T00:57:49.834Z,4.81
2023-04-20T01:00:18.010Z,4.78
2023-04-20T01:02:48.535Z,4.74
2023-04-20T01:05:16.561Z,4.78
2023-04-20T01:07:44.405Z,4.89
2023-04-20T01:10:12.249Z,4.92
2023-04-20T01:12:42.176Z,4.89
2023-04-20T01:15:11.817Z,4.81
2023-04-20T01:17:40.758Z,4.53
2023-04-20T01:20:12.493Z,4.59
2023-04-20T01:22:46.636Z,4.85
2023-04-20T01:25:14.766Z,4.94
2023-04-20T01:27:42.721Z,4.97
2023-04-20T01:30:11.564Z,4.85
2023-04-20T01:32:39.440Z,4.88
2023-04-20T01:35:09.622Z,4.78
2023-04-20T01:37:38.922Z,4.83
2023-04-20T01:40:10.400Z,4.84
2023-04-20T01:42:38.504Z,4.85
2023-04-20T01:45:07.220Z,4.77
2023-04-20T01:47:36.337Z,4.84
2023-04-20T01:50:04.459Z,4.74
2023-04-20T01:52:32.246Z,4.64
2023-04-20T01:55:00.031Z,4.62
2023-04-20T01:57:29.269Z,4.71
2023-04-20T01:59:57.083Z,4.66
2023-04-20T02:02:26.161Z,4.61
2023-04-20T02:04:55.027Z,4.54
2023-04-20T02:07:22.911Z,4.63
2023-04-20T02:09:53.072Z,4.47
2023-04-20T02:12:20.924Z,4.36
2023-04-20T02:14:50.068Z,4.45
2023-04-20T02:17:18.251Z,4.50
2023-04-20T02:19:46.894Z,4.51
2023-04-20T02:22:15.391Z,4.42
2023-04-20T02:24:43.779Z,4.28
2023-04-20T02:27:11.964Z,4.32
2023-04-20T02:29:41.510Z,4.24
2023-04-20T02:32:10.805Z,4.29
2023-04-20T02:34:38.554Z,4.19
2023-04-20T02:37:06.360Z,4.27
2023-04-20T02:39:35.748Z,4.23
2023-04-20T02:42:03.723Z,4.10
2023-04-20T02:44:32.317Z,4.11
2023-04-20T02:47:00.271Z,3.98
2023-04-20T02:49:29.562Z,3.97
2023-04-20T02:51:58.470Z,4.02
2023-04-20T02:54:26.391Z,4.15
2023-04-20T02:56:55.897Z,4.27
2023-04-20T02:59:25.505Z,4.13
2023-04-20T03:02:01.093Z,4.16
2023-04-20T03:04:32.099Z,4.15
2023-04-20T03:07:07.870Z,4.00
2023-04-20T03:09:38.140Z,4.17
2023-04-20T03:12:36.020Z,4.14
2023-04-20T03:15:25.192Z,4.25
2023-04-20T03:18:02.672Z,4.17
2023-04-20T03:20:32.463Z,4.14
2023-04-20T03:23:00.390Z,4.26
2023-04-20T03:25:29.531Z,4.30
2023-04-20T03:28:03.551Z,4.29
2023-04-20T03:30:31.727Z,4.23
2023-04-20T03:33:11.850Z,4.15
2023-04-20T03:35:42.978Z,4.09
2023-04-20T03:38:10.899Z,4.01
2023-04-20T03:40:38.656Z,4.13
2023-04-20T03:43:06.617Z,3.95
2023-04-20T03:45:34.463Z,4.11
2023-04-20T03:48:02.588Z,4.16
2023-04-20T03:50:30.669Z,4.20
2023-04-20T03:53:00.457Z,4.21
2023-04-20T03:55:28.657Z,4.20
2023-04-20T03:58:01.416Z,4.12
2023-04-20T04:00:38.442Z,4.21
2023-04-20T04:03:11.404Z,4.14
2023-04-20T04:05:39.493Z,4.23
2023-04-20T04:08:08.825Z,4.11
2023-04-20T04:10:37.369Z,4.06
2023-04-20T04:13:05.272Z,4.21
2023-04-20T04:15:33.165Z,4.22
2023-04-20T04:18:05.813Z,4.20
2023-04-20T04:20:35.094Z,4.31
2023-04-20T04:23:03.067Z,4.31
2023-04-20T04:25:42.754Z,4.37
2023-04-20T04:28:14.810Z,4.20
2023-04-20T04:30:51.782Z,4.21
2023-04-20T04:33:20.298Z,4.37
2023-04-20T04:35:50.451Z,4.27
2023-04-20T04:38:18.341Z,4.25
2023-04-20T04:40:52.433Z,4.31
2023-04-20T04:43:20.515Z,4.27
2023-04-20T04:45:58.620Z,4.31
2023-04-20T04:48:27.882Z,4.49
2023-04-20T04:50:55.735Z,4.49
2023-04-20T04:53:23.597Z,4.44
2023-04-20T04:55:52.804Z,4.41
2023-04-20T04:58:20.779Z,4.41
2023-04-20T05:00:48.905Z,4.49
2023-04-20T05:03:16.901Z,4.36
2023-04-20T05:05:45.059Z,4.34
2023-04-20T05:08:12.883Z,4.26
2023-04-20T05:10:40.955Z,4.27
2023-04-20T05:13:10.216Z,4.28
2023-04-20T05:15:38.075Z,4.34
2023-04-20T05:18:06.425Z,4.34
2023-04-20T05:20:34.234Z,4.25
2023-04-20T05:23:02.052Z,4.30
2023-04-20T05:25:30.823Z,4.16
2023-04-20T05:27:58.646Z,4.27
2023-04-20T05:30:28.154Z,4.28
2023-04-20T05:32:56.145Z,4.35
2023-04-20T05:35:23.983Z,4.44
2023-04-20T05:37:51.767Z,4.40
2023-04-20T05:40:19.690Z,4.37
2023-04-20T05:42:47.750Z,4.30
2023-04-20T05:45:15.691Z,4.37
2023-04-20T05:47:53.496Z,4.44
2023-04-20T05:50:21.859Z,4.36
2023-04-20T05:52:50.067Z,4.45
2023-04-20T05:55:19.989Z,4.50
2023-04-20T05:57:49.330Z,4.55
2023-04-20T06:00:18.066Z,4.54
2023-04-20T06:02:47.501Z,4.69
2023-04-20T06:05:18.205Z,4.69
2023-04-20T06:07:46.038Z,4.58
2023-04-20T06:10:13.965Z,4.65
2023-04-20T06:12:41.876Z,4.60
2023-04-20T06:15:10.997Z,4.53
2023-04-20T06:17:40.894Z,4.52
2023-04-20T06:20:12.595Z,4.50
2023-04-20T06:22:44.049Z,4.51
2023-04-20T06:25:12.349Z,4.60
2023-04-20T06:27:40.378Z,4.62
2023-04-20T06:30:09.924Z,4.68
2023-04-20T06:32:38.250Z,4.87
2023-04-20T06:35:06.974Z,4.83
2023-04-20T06:37:37.446Z,4.93
2023-04-20T06:40:08.124Z,4.97
2023-04-20T06:42:36.355Z,4.79
2023-04-20T06:45:04.585Z,4.70
2023-04-20T06:47:33.602Z,4.90
2023-04-20T06:50:02.409Z,4.75
2023-04-20T06:52:31.079Z,4.79
2023-04-20T06:55:00.788Z,4.75
2023-04-20T06:57:28.594Z,4.84
2023-04-20T06:59:56.427Z,4.77
2023-04-20T07:02:24.361Z,4.52
2023-04-20T07:04:52.287Z,4.79
2023-04-20T07:07:20.135Z,4.78
2023-04-20T07:09:47.992Z,5.01
2023-04-20T07:12:17.287Z,4.94
2023-04-20T07:14:45.158Z,5.08
2023-04-20T07:17:12.969Z,5.20
2023-04-20T07:19:41.184Z,5.12
2023-04-20T07:22:09.140Z,5.15
2023-04-20T07:24:37.062Z,5.09
2023-04-20T07:27:05.731Z,4.93
2023-04-20T07:29:34.890Z,4.82
2023-04-20T07:32:02.769Z,4.97
2023-04-20T07:34:30.843Z,5.02
2023-04-20T07:36:58.701Z,4.97
2023-04-20T07:39:28.665Z,4.99
2023-04-20T07:41:56.874Z,5.05
2023-04-20T07:44:24.764Z,5.05
2023-04-20T07:46:54.823Z,4.95
2023-04-20T07:49:22.870Z,4.95
2023-04-20T07:51:50.666Z,4.89
2023-04-20T07:54:18.524Z,4.97
2023-04-20T07:56:46.330Z,6.79
2023-04-20T07:59:14.105Z,7.46
2023-04-20T08:01:42.028Z,7.35
2023-04-20T08:04:11.539Z,7.50
2023-04-20T08:06:39.405Z,7.36
2023-04-20T08:09:07.220Z,7.44
2023-04-20T08:11:35.107Z,7.01
2023-04-20T08:14:02.981Z,7.40
2023-04-20T08:16:30.893Z,7.07
2023-04-20T08:18:58.765Z,6.74
2023-04-20T08:21:28.731Z,6.69
2023-04-20T08:23:56.695Z,6.48
2023-04-20T08:26:25.323Z,6.94
2023-04-20T08:28:53.260Z,6.61
2023-04-20T08:31:21.128Z,6.92
2023-04-20T08:33:49.066Z,7.31
2023-04-20T08:36:18.036Z,7.45
2023-04-20T08:38:47.317Z,7.67
2023-04-20T08:41:15.273Z,7.77
2023-04-20T08:43:43.640Z,7.46
2023-04-20T08:46:11.724Z,7.44
2023-04-20T08:48:42.949Z,7.40
2023-04-20T08:51:11.186Z,7.38
2023-04-20T08:53:39.039Z,7.30
2023-04-20T08:56:09.018Z,7.22
2023-04-20T08:58:38.557Z,7.12
2023-04-20T09:01:06.739Z,7.46
2023-04-20T09:03:35.998Z,7.42
2023-04-20T09:06:04.295Z,7.25
2023-04-20T09:08:42.327Z,7.02
2023-04-20T09:11:23.964Z,7.14
2023-04-20T09:14:03.293Z,6.87
2023-04-20T09:16:31.862Z,6.09
2023-04-20T09:18:59.914Z,5.87
2023-04-20T09:21:29.201Z,5.62
2023-04-20T09:23:58.576Z,5.74
2023-04-20T09:26:28.384Z,5.79
2023-04-20T09:28:56.275Z,5.80
2023-04-20T09:31:25.415Z,5.82
2023-04-20T09:34:01.230Z,5.84
2023-04-20T09:36:39.551Z,5.86
2023-04-20T09:39:09.379Z,5.88
2023-04-20T09:41:40.631Z,6.00
2023-04-20T09:44:09.837Z,6.20
2023-04-20T09:46:39.425Z,6.31
2023-04-20T09:49:08.851Z,6.37
2023-04-20T09:51:38.448Z,6.46
2023-04-20T09:54:07.694Z,6.59
2023-04-20T09:56:36.626Z,6.69
2023-04-20T09:59:06.166Z,6.87
2023-04-20T10:01:36.537Z,6.89
2023-04-20T10:04:09.280Z,6.79
2023-04-20T10:06:38.167Z,6.92
2023-04-20T10:09:08.702Z,7.30
2023-04-20T10:11:49.756Z,7.48
2023-04-20T10:14:23.187Z,7.66
2023-04-20T10:17:01.045Z,8.13
2023-04-20T10:19:38.702Z,7.78
2023-04-20T10:22:07.813Z,7.05
2023-04-20T10:24:35.847Z,7.04
2023-04-20T10:27:17.983Z,6.44
2023-04-20T10:29:47.331Z,6.84
2023-04-20T10:32:24.069Z,6.80
2023-04-20T10:35:02.739Z,6.61
2023-04-20T10:37:32.187Z,6.47
2023-04-20T10:40:00.887Z,6.30
2023-04-20T10:42:29.631Z,6.08
2023-04-20T10:44:58.957Z,6.14
2023-04-20T10:47:31.313Z,6.44
2023-04-20T10:50:09.216Z,6.63
2023-04-20T10:52:38.349Z,6.50
2023-04-20T10:55:08.478Z,6.73
2023-04-20T10:57:37.563Z,6.69
2023-04-20T11:00:17.551Z,6.94
2023-04-20T11:02:52.931Z,7.16
2023-04-20T11:05:22.320Z,7.26
2023-04-20T11:07:54.202Z,7.41
2023-04-20T11:10:23.346Z,7.48
2023-04-20T11:12:52.130Z,7.28
2023-04-20T11:15:32.283Z,7.72
2023-04-20T11:18:07.911Z,7.73
2023-04-20T11:20:36.264Z,7.56
2023-04-20T11:23:05.860Z,7.57
2023-04-20T11:25:33.841Z,7.61
2023-04-20T11:28:07.519Z,7.61
2023-04-20T11:30:41.500Z,7.71
2023-04-20T11:33:10.004Z,8.07
2023-04-20T11:35:39.027Z,8.43
2023-04-20T11:38:07.760Z,8.34
2023-04-20T11:40:36.349Z,8.00
2023-04-20T11:43:04.819Z,7.87
2023-04-20T11:45:36.292Z,7.96
2023-04-20T11:48:06.905Z,7.78
2023-04-20T11:50:34.711Z,7.74
2023-04-20T11:53:02.567Z,7.78
2023-04-20T11:55:30.516Z,7.63
2023-04-20T11:57:58.330Z,7.77
2023-04-20T12:00:26.117Z,7.57
2023-04-20T12:02:54.012Z,7.53
2023-04-20T12:05:23.279Z,7.35
2023-04-20T12:07:51.129Z,7.52
2023-04-20T12:10:18.988Z,8.03
2023-04-20T12:12:46.837Z,8.02
2023-04-20T12:15:14.656Z,7.81
2023-04-20T12:17:42.576Z,7.93
2023-04-20T12:20:12.246Z,8.18
2023-04-20T12:22:41.980Z,8.11
2023-04-20T12:25:10.071Z,7.75
2023-04-20T12:27:38.022Z,7.74
2023-04-20T12:30:06.808Z,7.76
2023-04-20T12:32:34.695Z,7.62
2023-04-20T12:35:02.666Z,7.84
2023-04-20T12:37:30.888Z,7.74
2023-04-20T12:40:00.149Z,7.93
2023-04-20T12:42:28.711Z,8.25
2023-04-20T12:44:56.548Z,8.27
2023-04-20T12:47:24.536Z,8.40
2023-04-20T12:49:52.598Z,8.05
2023-04-20T12:52:20.465Z,7.81
2023-04-20T12:54:48.363Z,7.82
2023-04-20T12:57:17.653Z,7.76
2023-04-20T12:59:48.533Z,7.88
2023-04-20T13:02:16.503Z,7.80
2023-04-20T13:04:44.453Z,7.82
2023-04-20T13:07:12.910Z,7.53
2023-04-20T13:09:40.772Z,7.86
2023-04-20T13:12:08.664Z,7.94
2023-04-20T13:14:38.525Z,7.95
2023-04-20T13:17:07.027Z,7.84
2023-04-20T13:19:35.381Z,7.97
2023-04-20T13:22:03.830Z,8.05
2023-04-20T13:24:31.745Z,8.23
2023-04-20T13:26:59.648Z,7.79
2023-04-20T13:29:27.612Z,7.92
2023-04-20T13:31:56.883Z,8.14
2023-04-20T13:34:24.759Z,8.19
2023-04-20T13:36:52.639Z,8.43
2023-04-20T13:39:21.914Z,8.07
2023-04-20T13:41:50.326Z,8.21
2023-04-20T13:44:18.353Z,8.53
2023-04-20T13:46:47.636Z,8.72
2023-04-20T13:49:17.802Z,8.84
2023-04-20T13:51:45.724Z,8.67
2023-04-20T13:54:13.608Z,8.69
2023-04-20T13:56:41.418Z,8.31
2023-04-20T13:59:09.328Z,8.27
2023-04-20T14:01:37.377Z,8.14
2023-04-20T14:04:05.508Z,8.24
2023-04-20T14:06:34.930Z,8.15
2023-04-20T14:09:03.034Z,8.00
2023-04-20T14:11:30.904Z,8.09
2023-04-20T14:13:58.708Z,8.04
2023-04-20T14:16:27.025Z,7.67
2023-04-20T14:18:54.884Z,7.82
2023-04-20T14:21:23.015Z,7.96
2023-04-20T14:23:53.587Z,7.80
2023-04-20T14:26:21.715Z,7.86
2023-04-20T14:28:49.558Z,7.89
2023-04-20T14:31:17.477Z,8.01
2023-04-20T14:33:45.878Z,8.03
2023-04-20T14:36:14.967Z,8.04
2023-04-20T14:38:42.995Z,7.92
2023-04-20T14:41:12.228Z,7.94
2023-04-20T14:43:40.164Z,7.96
2023-04-20T14:46:08.273Z,7.90
2023-04-20T14:48:38.090Z,7.89
2023-04-20T14:51:06.365Z,7.92
2023-04-20T14:53:35.228Z,8.02
2023-04-20T14:56:03.207Z,7.96
2023-04-20T14:58:32.444Z,7.93
2023-04-20T15:01:00.825Z,8.06
2023-04-20T15:03:28.944Z,8.10
2023-04-20T15:06:03.549Z,8.13
2023-04-20T15:08:31.456Z,8.31
2023-04-20T15:11:05.726Z,8.47
2023-04-20T15:13:35.292Z,8.51
2023-04-20T15:16:03.193Z,8.59
2023-04-20T15:18:31.025Z,8.30
2023-04-20T15:20:58.985Z,8.11
2023-04-20T15:23:27.121Z,8.04
2023-04-20T15:25:54.944Z,8.01
2023-04-20T15:28:22.940Z,8.02
2023-04-20T15:30:52.420Z,8.01
2023-04-20T15:33:20.345Z,8.05
2023-04-20T15:35:48.189Z,8.03
2023-04-20T15:38:16.447Z,8.18
2023-04-20T15:40:44.249Z,8.25
2023-04-20T15:43:12.084Z,8.23
2023-04-20T15:45:40.533Z,8.19
2023-04-20T15:48:10.998Z,8.04
2023-04-20T15:50:38.794Z,8.12
2023-04-20T15:53:09.045Z,8.10
2023-04-20T15:55:39.676Z,8.12
2023-04-20T15:58:07.573Z,8.00
2023-04-20T16:00:35.495Z,8.00
2023-04-20T16:03:03.571Z,8.07
2023-04-20T16:05:32.909Z,7.94
2023-04-20T16:08:01.411Z,8.04
2023-04-20T16:10:29.494Z,8.05
2023-04-20T16:12:57.544Z,8.03
2023-04-20T16:15:25.671Z,8.03
2023-04-20T16:17:54.530Z,8.03
2023-04-20T16:20:22.441Z,7.99
2023-04-20T16:22:51.881Z,8.05
2023-04-20T16:25:23.994Z,7.90
2023-04-20T16:27:52.082Z,7.84
2023-04-20T16:30:20.326Z,7.91
2023-04-20T16:32:48.321Z,7.94
2023-04-20T16:35:16.227Z,7.84
2023-04-20T16:37:44.073Z,7.82
2023-04-20T16:40:13.610Z,7.85
2023-04-20T16:42:41.443Z,7.75
2023-04-20T16:45:09.651Z,7.73
2023-04-20T16:47:37.713Z,7.65
2023-04-20T16:50:07.630Z,7.69
2023-04-20T16:52:35.653Z,7.65
2023-04-20T16:55:03.994Z,7.43
2023-04-20T16:57:33.186Z,7.42
2023-04-20T17:00:01.110Z,7.42
2023-04-20T17:02:32.776Z,7.35
2023-04-20T17:05:00.946Z,7.35
2023-04-20T17:07:29.294Z,7.25
2023-04-20T17:09:59.349Z,7.22
2023-04-20T17:12:27.441Z,7.17
2023-04-20T17:14:57.125Z,7.21
2023-04-20T17:17:26.114Z,7.19
2023-04-20T17:19:54.004Z,6.92
2023-04-20T17:22:21.855Z,7.09
2023-04-20T17:24:49.711Z,7.12
2023-04-20T17:27:17.542Z,7.07
2023-04-20T17:29:45.455Z,7.14
2023-04-20T17:32:14.718Z,7.15
2023-04-20T17:34:44.837Z,7.15
2023-04-20T17:37:12.953Z,7.07
2023-04-20T17:39:40.850Z,7.08
2023-04-20T17:42:08.810Z,7.09
2023-04-20T17:44:37.053Z,7.07
2023-04-20T17:47:05.915Z,7.05
2023-04-20T17:49:36.417Z,7.07
2023-04-20T17:52:04.569Z,7.09
2023-04-20T17:54:33.939Z,7.09
2023-04-20T17:57:01.944Z,6.98
2023-04-20T17:59:31.074Z,6.93
2023-04-20T18:01:59.248Z,6.92
2023-04-20T18:04:27.359Z,6.91
2023-04-20T18:06:56.834Z,6.83
2023-04-20T18:09:25.500Z,6.89
2023-04-20T18:11:54.248Z,6.87
2023-04-20T18:14:22.135Z,6.83
2023-04-20T18:16:51.991Z,6.78
2023-04-20T18:19:19.993Z,6.67
2023-04-20T18:21:47.928Z,6.74
2023-04-20T18:24:17.454Z,6.74
2023-04-20T18:26:46.034Z,6.77
2023-04-20T18:29:13.817Z,6.68
2023-04-20T18:31:41.845Z,6.67
2023-04-20T18:34:11.558Z,6.65
2023-04-20T18:36:40.136Z,6.70
2023-04-20T18:39:09.500Z,6.70
2023-04-20T18:41:38.767Z,6.67
2023-04-20T18:44:06.586Z,6.66
2023-04-20T18:46:34.534Z,6.72
2023-04-20T18:49:02.334Z,6.72
2023-04-20T18:51:31.999Z,6.69
2023-04-20T18:53:59.863Z,6.65
2023-04-20T18:56:27.769Z,6.62
2023-04-20T18:58:59.213Z,6.69
2023-04-20T19:01:27.458Z,6.71
2023-04-20T19:03:55.934Z,6.68
2023-04-20T19:06:24.004Z,6.66
2023-04-20T19:08:51.910Z,6.65
2023-04-20T19:11:19.862Z,6.58
2023-04-20T19:13:47.689Z,6.57
2023-04-20T19:16:16.948Z,6.61
2023-04-20T19:18:46.711Z,6.52
2023-04-20T19:21:14.529Z,6.61
2023-04-20T19:23:44.212Z,6.57
2023-04-20T19:26:12.282Z,6.61
2023-04-20T19:28:40.233Z,6.55
2023-04-20T19:31:09.622Z,6.60
2023-04-20T19:33:39.018Z,6.61
2023-04-20T19:36:08.218Z,6.63
2023-04-20T19:38:38.425Z,6.64
2023-04-20T19:41:07.065Z,6.60
2023-04-20T19:43:36.236Z,6.58
2023-04-20T19:46:04.182Z,6.58
2023-04-20T19:48:32.072Z,6.60
2023-04-20T19:51:03.392Z,6.55
2023-04-20T19:53:31.766Z,6.43
2023-04-20T19:55:59.643Z,6.48
2023-04-20T19:58:27.530Z,6.54
2023-04-20T20:00:55.739Z,6.53
2023-04-20T20:03:24.051Z,6.49
2023-04-20T20:05:52.081Z,6.47
2023-04-20T20:08:21.389Z,6.51
2023-04-20T20:10:49.251Z,6.52
2023-04-20T20:13:17.079Z,6.46
2023-04-20T20:15:45.350Z,6.42
2023-04-20T20:18:14.140Z,6.46
2023-04-20T20:20:42.006Z,6.46
2023-04-20T20:23:12.932Z,6.46
2023-04-20T20:25:42.124Z,6.43
2023-04-20T20:28:09.914Z,6.43
2023-04-20T20:30:37.780Z,6.44
2023-04-20T20:33:05.990Z,6.36
2023-04-20T20:35:34.202Z,6.40
2023-04-20T20:38:07.662Z,6.42
2023-04-20T20:40:35.632Z,6.44
2023-04-20T20:43:05.088Z,6.38
2023-04-20T20:45:33.459Z,6.50
2023-04-20T20:48:01.872Z,6.57
2023-04-20T20:50:29.935Z,6.52
2023-04-20T20:52:57.766Z,6.59
2023-04-20T20:55:25.729Z,6.50
2023-04-20T20:57:53.667Z,6.49
2023-04-20T21:00:22.927Z,6.44
2023-04-20T21:02:50.834Z,6.50
2023-04-20T21:05:18.900Z,6.45
2023-04-20T21:07:46.849Z,6.52
2023-04-20T21:10:14.790Z,6.52
2023-04-20T21:12:42.658Z,6.47
2023-04-20T21:15:11.886Z,6.39
2023-04-20T21:17:42.395Z,6.47
2023-04-20T21:20:11.538Z,6.62
2023-04-20T21:22:39.841Z,6.50
2023-04-20T21:25:08.865Z,6.55
2023-04-20T21:27:36.667Z,6.53
2023-04-20T21:30:04.774Z,6.55
2023-04-20T21:32:32.634Z,6.48
2023-04-20T21:35:02.071Z,6.53
2023-04-20T21:37:29.950Z,6.39
2023-04-20T21:39:57.856Z,6.53
2023-04-20T21:42:25.899Z,6.50
2023-04-20T21:44:53.886Z,6.61
2023-04-20T21:47:22.010Z,6.47
2023-04-20T21:49:49.832Z,6.41
2023-04-20T21:52:19.248Z,6.36
2023-04-20T21:54:47.260Z,6.30
2023-04-20T21:57:15.292Z,6.29
2023-04-20T21:59:43.129Z,6.36
2023-04-20T22:02:11.056Z,6.29
2023-04-20T22:04:39.534Z,6.27
2023-04-20T22:07:08.353Z,6.31
2023-04-20T22:09:37.767Z,6.42
2023-04-20T22:12:05.938Z,6.49
2023-04-20T22:14:33.781Z,6.50
2023-04-20T22:17:01.823Z,6.43
2023-04-20T22:19:30.295Z,6.54
2023-04-20T22:21:58.155Z,6.55
2023-04-20T22:24:25.974Z,6.54
2023-04-20T22:26:55.229Z,6.59
2023-04-20T22:29:23.155Z,6.55
2023-04-20T22:31:51.377Z,6.54
2023-04-20T22:34:19.254Z,6.56
2023-04-20T22:36:47.091Z,6.52
2023-04-20T22:39:14.863Z,6.54
2023-04-20T22:41:42.653Z,6.52
2023-04-20T22:44:11.987Z,6.54
2023-04-20T22:46:39.872Z,6.52
2023-04-20T22:49:08.760Z,6.48
2023-04-20T22:51:36.580Z,6.46
2023-04-20T22:54:07.162Z,6.43
2023-04-20T22:56:35.500Z,6.52
2023-04-20T22:59:03.381Z,6.56
2023-04-20T23:01:32.682Z,6.49
2023-04-20T23:04:00.894Z,6.50
2023-04-20T23:06:29.635Z,6.41
2023-04-20T23:08:59.947Z,6.44
2023-04-20T23:11:29.121Z,6.42
2023-04-20T23:13:57.346Z,6.47
2023-04-20T23:16:28.166Z,6.49
2023-04-20T23:18:57.460Z,6.50
2023-04-20T23:21:25.385Z,8.05
2023-04-20T23:23:53.254Z,9.51
2023-04-20T23:26:21.029Z,10.34
2023-04-20T23:28:50.789Z,10.03
2023-04-20T23:31:18.871Z,9.11
2023-04-20T23:33:46.837Z,8.84
2023-04-20T23:36:16.057Z,8.64
2023-04-20T23:38:43.920Z,8.36
2023-04-20T23:41:12.353Z,8.35
2023-04-20T23:43:40.493Z,8.19
2023-04-20T23:46:08.661Z,8.36
2023-04-20T23:48:36.580Z,8.47
2023-04-20T23:51:04.745Z,8.69
2023-04-20T23:53:36.246Z,8.70
2023-04-20T23:56:04.548Z,8.57
2023-04-20T23:58:32.615Z,8.82
